sensor_id;sensor_type;location;lat;lon;timestamp;temperature;humidity
49379;DHT22;35254;47.990;-1.608;2023-04-03T00:01:37;18.80;53.50
49379;DHT22;35254;47.990;-1.608;2023-04-03T00:04:04;18.80;53.60
49379;DHT22;35254;47.990;-1.608;2023-04-03T00:06:31;18.80;53.60
49379;DHT22;35254;47.990;-1.608;2023-04-03T00:08:56;18.80;53.50
49379;DHT22;35254;47.990;-1.608;2023-04-03T00:11:22;18.80;53.30
49379;DHT22;35254;47.990;-1.608;2023-04-03T00:13:47;18.80;53.50
49379;DHT22;35254;47.990;-1.608;2023-04-03T00:16:13;18.80;53.60
49379;DHT22;35254;47.990;-1.608;2023-04-03T00:18:39;18.80;53.40
49379;DHT22;35254;47.990;-1.608;2023-04-03T00:21:06;18.80;53.30
49379;DHT22;35254;47.990;-1.608;2023-04-03T00:23:32;18.80;53.20
49379;DHT22;35254;47.990;-1.608;2023-04-03T00:25:58;18.80;53.30
49379;DHT22;35254;47.990;-1.608;2023-04-03T00:28:24;18.80;53.30
49379;DHT22;35254;47.990;-1.608;2023-04-03T00:30:50;18.80;53.20
49379;DHT22;35254;47.990;-1.608;2023-04-03T00:33:16;18.80;53.30
49379;DHT22;35254;47.990;-1.608;2023-04-03T00:35:42;18.80;53.20
49379;DHT22;35254;47.990;-1.608;2023-04-03T00:38:08;18.80;53.30
49379;DHT22;35254;47.990;-1.608;2023-04-03T00:40:36;18.80;53.10
49379;DHT22;35254;47.990;-1.608;2023-04-03T00:43:10;18.90;53.20
49379;DHT22;35254;47.990;-1.608;2023-04-03T00:45:39;18.80;53.00
49379;DHT22;35254;47.990;-1.608;2023-04-03T00:48:07;18.90;52.90
49379;DHT22;35254;47.990;-1.608;2023-04-03T00:50:37;18.90;52.90
49379;DHT22;35254;47.990;-1.608;2023-04-03T00:53:05;18.90;53.00
49379;DHT22;35254;47.990;-1.608;2023-04-03T00:55:32;18.90;52.50
49379;DHT22;35254;47.990;-1.608;2023-04-03T00:58:00;18.90;52.90
49379;DHT22;35254;47.990;-1.608;2023-04-03T01:00:26;18.90;53.20
49379;DHT22;35254;47.990;-1.608;2023-04-03T01:02:52;18.90;52.70
49379;DHT22;35254;47.990;-1.608;2023-04-03T01:05:19;18.90;52.60
49379;DHT22;35254;47.990;-1.608;2023-04-03T01:07:46;18.90;52.70
49379;DHT22;35254;47.990;-1.608;2023-04-03T01:10:15;18.90;52.70
49379;DHT22;35254;47.990;-1.608;2023-04-03T01:12:45;18.90;52.90
49379;DHT22;35254;47.990;-1.608;2023-04-03T01:15:20;19.00;52.60
49379;DHT22;35254;47.990;-1.608;2023-04-03T01:17:57;19.00;52.70
49379;DHT22;35254;47.990;-1.608;2023-04-03T01:25:40;19.00;52.60
49379;DHT22;35254;47.990;-1.608;2023-04-03T01:28:09;19.00;52.60
49379;DHT22;35254;47.990;-1.608;2023-04-03T01:30:50;19.10;52.40
49379;DHT22;35254;47.990;-1.608;2023-04-03T01:33:18;19.10;52.70
49379;DHT22;35254;47.990;-1.608;2023-04-03T01:35:44;19.10;52.50
49379;DHT22;35254;47.990;-1.608;2023-04-03T01:38:09;19.10;52.60
49379;DHT22;35254;47.990;-1.608;2023-04-03T01:40:36;19.10;52.50
49379;DHT22;35254;47.990;-1.608;2023-04-03T01:43:01;19.10;52.40
49379;DHT22;35254;47.990;-1.608;2023-04-03T01:45:27;19.10;52.30
49379;DHT22;35254;47.990;-1.608;2023-04-03T01:47:53;19.10;52.20
49379;DHT22;35254;47.990;-1.608;2023-04-03T01:50:18;19.20;52.30
49379;DHT22;35254;47.990;-1.608;2023-04-03T01:52:44;19.20;51.80
49379;DHT22;35254;47.990;-1.608;2023-04-03T01:55:09;19.20;51.70
49379;DHT22;35254;47.990;-1.608;2023-04-03T01:57:35;19.20;51.90
49379;DHT22;35254;47.990;-1.608;2023-04-03T02:00:01;19.20;51.60
49379;DHT22;35254;47.990;-1.608;2023-04-03T02:02:26;19.20;51.60
49379;DHT22;35254;47.990;-1.608;2023-04-03T02:04:52;19.20;51.80
49379;DHT22;35254;47.990;-1.608;2023-04-03T02:07:17;19.20;51.80
49379;DHT22;35254;47.990;-1.608;2023-04-03T02:09:43;19.20;51.40
49379;DHT22;35254;47.990;-1.608;2023-04-03T02:12:09;19.20;51.20
49379;DHT22;35254;47.990;-1.608;2023-04-03T02:14:34;19.20;51.60
49379;DHT22;35254;47.990;-1.608;2023-04-03T02:17:01;19.20;51.40
49379;DHT22;35254;47.990;-1.608;2023-04-03T02:19:30;19.20;51.30
49379;DHT22;35254;47.990;-1.608;2023-04-03T02:21:56;19.30;51.20
49379;DHT22;35254;47.990;-1.608;2023-04-03T02:24:22;19.20;51.20
49379;DHT22;35254;47.990;-1.608;2023-04-03T02:26:47;19.30;51.00
49379;DHT22;35254;47.990;-1.608;2023-04-03T02:29:13;19.30;51.00
49379;DHT22;35254;47.990;-1.608;2023-04-03T02:31:39;19.30;50.80
49379;DHT22;35254;47.990;-1.608;2023-04-03T02:34:05;19.30;50.80
49379;DHT22;35254;47.990;-1.608;2023-04-03T02:36:31;19.30;50.80
49379;DHT22;35254;47.990;-1.608;2023-04-03T02:38:56;19.40;50.80
49379;DHT22;35254;47.990;-1.608;2023-04-03T02:41:22;19.30;50.70
49379;DHT22;35254;47.990;-1.608;2023-04-03T02:43:48;19.40;50.70
49379;DHT22;35254;47.990;-1.608;2023-04-03T02:46:13;19.30;50.70
49379;DHT22;35254;47.990;-1.608;2023-04-03T02:48:40;19.40;50.50
49379;DHT22;35254;47.990;-1.608;2023-04-03T02:51:06;19.40;50.50
49379;DHT22;35254;47.990;-1.608;2023-04-03T02:53:32;19.40;50.40
49379;DHT22;35254;47.990;-1.608;2023-04-03T02:55:57;19.40;50.30
49379;DHT22;35254;47.990;-1.608;2023-04-03T02:58:23;19.40;50.20
49379;DHT22;35254;47.990;-1.608;2023-04-03T03:00:48;19.40;50.30
49379;DHT22;35254;47.990;-1.608;2023-04-03T03:03:14;19.40;50.20
49379;DHT22;35254;47.990;-1.608;2023-04-03T03:05:40;19.40;50.20
49379;DHT22;35254;47.990;-1.608;2023-04-03T03:08:06;19.40;50.20
49379;DHT22;35254;47.990;-1.608;2023-04-03T03:10:31;19.40;50.10
49379;DHT22;35254;47.990;-1.608;2023-04-03T03:12:57;19.40;50.00
49379;DHT22;35254;47.990;-1.608;2023-04-03T03:15:22;19.50;49.90
49379;DHT22;35254;47.990;-1.608;2023-04-03T03:17:48;19.40;50.00
49379;DHT22;35254;47.990;-1.608;2023-04-03T03:20:14;19.40;50.00
49379;DHT22;35254;47.990;-1.608;2023-04-03T03:22:41;19.40;50.00
49379;DHT22;35254;47.990;-1.608;2023-04-03T03:25:06;19.50;49.80
49379;DHT22;35254;47.990;-1.608;2023-04-03T03:27:32;19.50;49.80
49379;DHT22;35254;47.990;-1.608;2023-04-03T03:29:58;19.50;49.70
49379;DHT22;35254;47.990;-1.608;2023-04-03T03:32:23;19.50;49.70
49379;DHT22;35254;47.990;-1.608;2023-04-03T03:34:50;19.50;49.50
49379;DHT22;35254;47.990;-1.608;2023-04-03T03:37:16;19.50;49.60
49379;DHT22;35254;47.990;-1.608;2023-04-03T03:39:41;19.50;49.50
49379;DHT22;35254;47.990;-1.608;2023-04-03T03:42:07;19.50;49.40
49379;DHT22;35254;47.990;-1.608;2023-04-03T03:44:32;19.50;49.40
49379;DHT22;35254;47.990;-1.608;2023-04-03T03:46:58;19.50;49.40
49379;DHT22;35254;47.990;-1.608;2023-04-03T03:49:24;19.50;49.30
49379;DHT22;35254;47.990;-1.608;2023-04-03T03:51:49;19.50;49.00
49379;DHT22;35254;47.990;-1.608;2023-04-03T03:54:16;19.50;49.20
49379;DHT22;35254;47.990;-1.608;2023-04-03T03:56:41;19.60;49.20
49379;DHT22;35254;47.990;-1.608;2023-04-03T03:59:07;19.50;49.10
49379;DHT22;35254;47.990;-1.608;2023-04-03T04:01:33;19.50;49.10
49379;DHT22;35254;47.990;-1.608;2023-04-03T04:03:58;19.50;49.20
49379;DHT22;35254;47.990;-1.608;2023-04-03T04:06:24;19.50;49.20
49379;DHT22;35254;47.990;-1.608;2023-04-03T04:08:50;19.50;49.00
49379;DHT22;35254;47.990;-1.608;2023-04-03T04:11:16;19.50;49.10
49379;DHT22;35254;47.990;-1.608;2023-04-03T04:13:41;19.50;48.90
49379;DHT22;35254;47.990;-1.608;2023-04-03T04:16:07;19.50;49.10
49379;DHT22;35254;47.990;-1.608;2023-04-03T04:18:33;19.50;49.00
49379;DHT22;35254;47.990;-1.608;2023-04-03T04:20:59;19.50;49.00
49379;DHT22;35254;47.990;-1.608;2023-04-03T04:23:25;19.50;49.00
49379;DHT22;35254;47.990;-1.608;2023-04-03T04:25:51;19.50;48.50
49379;DHT22;35254;47.990;-1.608;2023-04-03T04:28:17;19.50;49.20
49379;DHT22;35254;47.990;-1.608;2023-04-03T04:30:43;19.50;48.70
49379;DHT22;35254;47.990;-1.608;2023-04-03T04:33:08;19.50;48.90
49379;DHT22;35254;47.990;-1.608;2023-04-03T04:35:35;19.50;48.80
49379;DHT22;35254;47.990;-1.608;2023-04-03T04:38:01;19.50;49.00
49379;DHT22;35254;47.990;-1.608;2023-04-03T04:40:27;19.50;48.80
49379;DHT22;35254;47.990;-1.608;2023-04-03T04:42:53;19.50;49.00
49379;DHT22;35254;47.990;-1.608;2023-04-03T04:45:18;19.50;48.90
49379;DHT22;35254;47.990;-1.608;2023-04-03T04:47:44;19.50;48.80
49379;DHT22;35254;47.990;-1.608;2023-04-03T04:50:10;19.50;48.90
49379;DHT22;35254;47.990;-1.608;2023-04-03T04:52:37;19.50;48.90
49379;DHT22;35254;47.990;-1.608;2023-04-03T04:55:03;19.50;48.90
49379;DHT22;35254;47.990;-1.608;2023-04-03T04:57:29;19.50;48.30
49379;DHT22;35254;47.990;-1.608;2023-04-03T04:59:55;19.50;47.90
49379;DHT22;35254;47.990;-1.608;2023-04-03T05:02:21;19.50;48.50
49379;DHT22;35254;47.990;-1.608;2023-04-03T05:04:46;19.50;48.60
49379;DHT22;35254;47.990;-1.608;2023-04-03T05:07:12;19.40;48.60
49379;DHT22;35254;47.990;-1.608;2023-04-03T05:09:38;19.50;48.20
49379;DHT22;35254;47.990;-1.608;2023-04-03T05:12:04;19.50;48.40
49379;DHT22;35254;47.990;-1.608;2023-04-03T05:14:30;19.40;48.60
49379;DHT22;35254;47.990;-1.608;2023-04-03T05:16:55;19.40;48.50
49379;DHT22;35254;47.990;-1.608;2023-04-03T05:19:21;19.40;48.50
49379;DHT22;35254;47.990;-1.608;2023-04-03T05:21:47;19.40;48.60
49379;DHT22;35254;47.990;-1.608;2023-04-03T05:24:14;19.40;48.10
49379;DHT22;35254;47.990;-1.608;2023-04-03T05:26:40;19.40;48.70
49379;DHT22;35254;47.990;-1.608;2023-04-03T05:29:06;19.40;48.60
49379;DHT22;35254;47.990;-1.608;2023-04-03T05:31:32;19.40;48.30
49379;DHT22;35254;47.990;-1.608;2023-04-03T05:33:58;19.40;48.50
49379;DHT22;35254;47.990;-1.608;2023-04-03T05:36:23;19.40;48.20
49379;DHT22;35254;47.990;-1.608;2023-04-03T05:38:49;19.40;48.00
49379;DHT22;35254;47.990;-1.608;2023-04-03T05:41:15;19.40;48.30
49379;DHT22;35254;47.990;-1.608;2023-04-03T05:43:41;19.40;48.10
49379;DHT22;35254;47.990;-1.608;2023-04-03T05:46:16;19.40;47.90
49379;DHT22;35254;47.990;-1.608;2023-04-03T05:48:42;19.40;48.40
49379;DHT22;35254;47.990;-1.608;2023-04-03T05:51:14;19.40;48.10
49379;DHT22;35254;47.990;-1.608;2023-04-03T05:53:41;19.40;48.50
49379;DHT22;35254;47.990;-1.608;2023-04-03T05:56:08;19.40;48.30
49379;DHT22;35254;47.990;-1.608;2023-04-03T05:58:33;19.40;48.50
49379;DHT22;35254;47.990;-1.608;2023-04-03T06:00:59;19.40;48.50
49379;DHT22;35254;47.990;-1.608;2023-04-03T06:03:26;19.30;48.60
49379;DHT22;35254;47.990;-1.608;2023-04-03T06:05:52;19.40;48.70
49379;DHT22;35254;47.990;-1.608;2023-04-03T06:08:17;19.30;49.10
49379;DHT22;35254;47.990;-1.608;2023-04-03T06:10:44;19.30;49.20
49379;DHT22;35254;47.990;-1.608;2023-04-03T06:13:10;19.30;49.30
49379;DHT22;35254;47.990;-1.608;2023-04-03T06:15:36;19.30;49.50
49379;DHT22;35254;47.990;-1.608;2023-04-03T06:18:03;19.30;49.70
49379;DHT22;35254;47.990;-1.608;2023-04-03T06:20:29;19.30;49.80
49379;DHT22;35254;47.990;-1.608;2023-04-03T06:22:54;19.30;49.90
49379;DHT22;35254;47.990;-1.608;2023-04-03T06:25:20;19.30;50.10
49379;DHT22;35254;47.990;-1.608;2023-04-03T06:27:46;19.30;50.10
49379;DHT22;35254;47.990;-1.608;2023-04-03T06:30:12;19.30;50.10
49379;DHT22;35254;47.990;-1.608;2023-04-03T06:32:38;19.30;50.00
49379;DHT22;35254;47.990;-1.608;2023-04-03T06:35:04;19.30;49.90
49379;DHT22;35254;47.990;-1.608;2023-04-03T06:37:31;19.30;49.90
49379;DHT22;35254;47.990;-1.608;2023-04-03T06:39:58;19.30;49.80
49379;DHT22;35254;47.990;-1.608;2023-04-03T06:42:23;19.30;49.80
49379;DHT22;35254;47.990;-1.608;2023-04-03T06:44:49;19.30;49.60
49379;DHT22;35254;47.990;-1.608;2023-04-03T06:47:16;19.30;49.50
49379;DHT22;35254;47.990;-1.608;2023-04-03T06:49:43;19.40;49.50
49379;DHT22;35254;47.990;-1.608;2023-04-03T06:52:09;19.30;49.40
49379;DHT22;35254;47.990;-1.608;2023-04-03T06:54:35;19.30;49.40
49379;DHT22;35254;47.990;-1.608;2023-04-03T06:57:02;19.40;49.40
49379;DHT22;35254;47.990;-1.608;2023-04-03T06:59:27;19.40;49.30
49379;DHT22;35254;47.990;-1.608;2023-04-03T07:01:53;19.40;49.30
49379;DHT22;35254;47.990;-1.608;2023-04-03T07:04:19;19.40;49.30
49379;DHT22;35254;47.990;-1.608;2023-04-03T07:06:46;19.40;49.30
49379;DHT22;35254;47.990;-1.608;2023-04-03T07:09:13;19.40;49.30
49379;DHT22;35254;47.990;-1.608;2023-04-03T07:11:39;19.40;49.30
49379;DHT22;35254;47.990;-1.608;2023-04-03T07:14:04;19.40;49.40
49379;DHT22;35254;47.990;-1.608;2023-04-03T07:16:31;19.40;49.30
49379;DHT22;35254;47.990;-1.608;2023-04-03T07:18:57;19.40;49.30
49379;DHT22;35254;47.990;-1.608;2023-04-03T07:21:23;19.40;49.30
49379;DHT22;35254;47.990;-1.608;2023-04-03T07:23:49;19.40;49.30
49379;DHT22;35254;47.990;-1.608;2023-04-03T07:26:15;19.40;49.30
49379;DHT22;35254;47.990;-1.608;2023-04-03T07:28:41;19.40;49.30
49379;DHT22;35254;47.990;-1.608;2023-04-03T07:31:10;19.40;49.30
49379;DHT22;35254;47.990;-1.608;2023-04-03T07:33:39;19.40;49.20
49379;DHT22;35254;47.990;-1.608;2023-04-03T07:36:06;19.40;49.20
49379;DHT22;35254;47.990;-1.608;2023-04-03T07:38:33;19.40;49.20
49379;DHT22;35254;47.990;-1.608;2023-04-03T07:40:59;19.40;49.20
49379;DHT22;35254;47.990;-1.608;2023-04-03T07:43:25;19.40;49.20
49379;DHT22;35254;47.990;-1.608;2023-04-03T07:45:51;19.40;49.20
49379;DHT22;35254;47.990;-1.608;2023-04-03T07:48:25;19.40;49.20
49379;DHT22;35254;47.990;-1.608;2023-04-03T07:50:51;19.40;49.20
49379;DHT22;35254;47.990;-1.608;2023-04-03T07:53:17;19.40;49.20
49379;DHT22;35254;47.990;-1.608;2023-04-03T07:55:46;19.40;49.20
49379;DHT22;35254;47.990;-1.608;2023-04-03T07:58:14;19.40;49.30
49379;DHT22;35254;47.990;-1.608;2023-04-03T08:00:40;19.40;49.30
49379;DHT22;35254;47.990;-1.608;2023-04-03T08:03:07;19.40;49.40
49379;DHT22;35254;47.990;-1.608;2023-04-03T08:05:37;19.40;49.30
49379;DHT22;35254;47.990;-1.608;2023-04-03T08:08:03;19.40;49.00
49379;DHT22;35254;47.990;-1.608;2023-04-03T08:10:30;19.40;48.80
49379;DHT22;35254;47.990;-1.608;2023-04-03T08:12:56;19.40;48.70
49379;DHT22;35254;47.990;-1.608;2023-04-03T08:15:22;19.40;48.80
49379;DHT22;35254;47.990;-1.608;2023-04-03T08:17:48;19.40;48.80
49379;DHT22;35254;47.990;-1.608;2023-04-03T08:20:13;19.40;48.80
49379;DHT22;35254;47.990;-1.608;2023-04-03T08:22:39;19.50;48.80
49379;DHT22;35254;47.990;-1.608;2023-04-03T08:25:07;19.40;48.80
49379;DHT22;35254;47.990;-1.608;2023-04-03T08:27:33;19.50;48.80
49379;DHT22;35254;47.990;-1.608;2023-04-03T08:29:59;19.50;48.80
49379;DHT22;35254;47.990;-1.608;2023-04-03T08:32:25;19.40;48.80
49379;DHT22;35254;47.990;-1.608;2023-04-03T08:34:52;19.40;48.80
49379;DHT22;35254;47.990;-1.608;2023-04-03T08:37:18;19.40;48.80
49379;DHT22;35254;47.990;-1.608;2023-04-03T08:39:44;19.40;48.90
49379;DHT22;35254;47.990;-1.608;2023-04-03T08:45:01;19.50;48.90
49379;DHT22;35254;47.990;-1.608;2023-04-03T08:48:01;19.40;49.00
49379;DHT22;35254;47.990;-1.608;2023-04-03T08:50:35;19.40;49.10
49379;DHT22;35254;47.990;-1.608;2023-04-03T08:53:04;19.40;49.10
49379;DHT22;35254;47.990;-1.608;2023-04-03T08:55:40;19.40;49.20
49379;DHT22;35254;47.990;-1.608;2023-04-03T08:58:21;19.40;49.20
49379;DHT22;35254;47.990;-1.608;2023-04-03T09:03:22;19.40;49.30
49379;DHT22;35254;47.990;-1.608;2023-04-03T09:08:31;19.50;49.40
49379;DHT22;35254;47.990;-1.608;2023-04-03T09:14:01;19.40;49.50
49379;DHT22;35254;47.990;-1.608;2023-04-03T09:16:48;19.50;49.50
49379;DHT22;35254;47.990;-1.608;2023-04-03T09:19:43;19.40;49.60
49379;DHT22;35254;47.990;-1.608;2023-04-03T09:22:23;19.40;49.90
49379;DHT22;35254;47.990;-1.608;2023-04-03T09:25:03;19.40;49.90
49379;DHT22;35254;47.990;-1.608;2023-04-03T09:27:31;19.40;49.90
49379;DHT22;35254;47.990;-1.608;2023-04-03T09:29:57;19.40;50.00
49379;DHT22;35254;47.990;-1.608;2023-04-03T09:32:35;19.40;50.10
49379;DHT22;35254;47.990;-1.608;2023-04-03T09:35:10;19.40;50.00
49379;DHT22;35254;47.990;-1.608;2023-04-03T09:37:46;19.40;50.20
49379;DHT22;35254;47.990;-1.608;2023-04-03T09:42:59;19.40;50.20
49379;DHT22;35254;47.990;-1.608;2023-04-03T09:45:35;19.40;50.20
49379;DHT22;35254;47.990;-1.608;2023-04-03T09:48:08;19.40;50.40
49379;DHT22;35254;47.990;-1.608;2023-04-03T09:58:50;19.40;50.50
49379;DHT22;35254;47.990;-1.608;2023-04-03T10:01:33;19.40;50.50
49379;DHT22;35254;47.990;-1.608;2023-04-03T10:04:10;19.40;50.40
49379;DHT22;35254;47.990;-1.608;2023-04-03T10:06:48;19.40;50.50
49379;DHT22;35254;47.990;-1.608;2023-04-03T10:09:31;19.40;50.50
49379;DHT22;35254;47.990;-1.608;2023-04-03T10:12:11;19.40;50.60
49379;DHT22;35254;47.990;-1.608;2023-04-03T10:17:36;19.40;50.70
49379;DHT22;35254;47.990;-1.608;2023-04-03T10:20:07;19.40;50.70
49379;DHT22;35254;47.990;-1.608;2023-04-03T10:22:44;19.40;50.70
49379;DHT22;35254;47.990;-1.608;2023-04-03T10:25:20;19.40;50.80
49379;DHT22;35254;47.990;-1.608;2023-04-03T10:31:13;19.50;50.70
49379;DHT22;35254;47.990;-1.608;2023-04-03T10:36:33;19.40;50.90
49379;DHT22;35254;47.990;-1.608;2023-04-03T10:44:52;19.40;51.00
49379;DHT22;35254;47.990;-1.608;2023-04-03T10:47:36;19.50;50.90
49379;DHT22;35254;47.990;-1.608;2023-04-03T10:56:08;19.50;51.00
49379;DHT22;35254;47.990;-1.608;2023-04-03T10:58:44;19.50;51.10
49379;DHT22;35254;47.990;-1.608;2023-04-03T11:01:16;19.50;51.10
49379;DHT22;35254;47.990;-1.608;2023-04-03T11:03:46;19.50;51.20
49379;DHT22;35254;47.990;-1.608;2023-04-03T11:06:15;19.50;51.20
49379;DHT22;35254;47.990;-1.608;2023-04-03T11:09:31;19.40;51.20
49379;DHT22;35254;47.990;-1.608;2023-04-03T11:11:39;19.50;51.20
49379;DHT22;35254;47.990;-1.608;2023-04-03T11:14:21;19.40;51.20
49379;DHT22;35254;47.990;-1.608;2023-04-03T11:19:57;19.50;51.30
49379;DHT22;35254;47.990;-1.608;2023-04-03T11:22:48;19.50;51.30
49379;DHT22;35254;47.990;-1.608;2023-04-03T11:25:23;19.50;51.30
49379;DHT22;35254;47.990;-1.608;2023-04-03T11:27:55;19.50;51.30
49379;DHT22;35254;47.990;-1.608;2023-04-03T11:33:49;19.50;51.30
49379;DHT22;35254;47.990;-1.608;2023-04-03T11:36:47;19.50;51.20
49379;DHT22;35254;47.990;-1.608;2023-04-03T11:39:26;19.50;51.20
49379;DHT22;35254;47.990;-1.608;2023-04-03T11:41:53;19.50;51.30
49379;DHT22;35254;47.990;-1.608;2023-04-03T11:44:36;19.50;51.20
49379;DHT22;35254;47.990;-1.608;2023-04-03T11:47:04;19.50;51.20
49379;DHT22;35254;47.990;-1.608;2023-04-03T12:21:20;19.60;52.20
49379;DHT22;35254;47.990;-1.608;2023-04-03T12:24:24;19.60;52.20
49379;DHT22;35254;47.990;-1.608;2023-04-03T12:45:44;19.70;51.60
49379;DHT22;35254;47.990;-1.608;2023-04-03T12:48:17;19.70;51.60
49379;DHT22;35254;47.990;-1.608;2023-04-03T12:50:46;19.70;51.60
49379;DHT22;35254;47.990;-1.608;2023-04-03T12:53:13;19.70;51.50
49379;DHT22;35254;47.990;-1.608;2023-04-03T12:55:40;19.70;51.50
49379;DHT22;35254;47.990;-1.608;2023-04-03T12:58:21;19.70;51.50
49379;DHT22;35254;47.990;-1.608;2023-04-03T13:00:59;19.70;51.50
49379;DHT22;35254;47.990;-1.608;2023-04-03T13:03:26;19.70;51.50
49379;DHT22;35254;47.990;-1.608;2023-04-03T13:05:57;19.70;51.40
49379;DHT22;35254;47.990;-1.608;2023-04-03T13:08:24;19.70;51.40
49379;DHT22;35254;47.990;-1.608;2023-04-03T13:11:04;19.70;51.50
49379;DHT22;35254;47.990;-1.608;2023-04-03T13:13:31;19.70;51.60
49379;DHT22;35254;47.990;-1.608;2023-04-03T13:15:58;19.70;51.70
49379;DHT22;35254;47.990;-1.608;2023-04-03T13:18:32;19.70;51.70
49379;DHT22;35254;47.990;-1.608;2023-04-03T13:23:33;19.70;51.80
49379;DHT22;35254;47.990;-1.608;2023-04-03T13:26:01;19.80;51.90
49379;DHT22;35254;47.990;-1.608;2023-04-03T13:28:30;19.70;51.90
49379;DHT22;35254;47.990;-1.608;2023-04-03T13:33:30;19.70;52.00
49379;DHT22;35254;47.990;-1.608;2023-04-03T13:38:30;19.70;52.10
49379;DHT22;35254;47.990;-1.608;2023-04-03T13:41:20;19.80;52.10
49379;DHT22;35254;47.990;-1.608;2023-04-03T13:43:46;19.80;52.20
49379;DHT22;35254;47.990;-1.608;2023-04-03T13:48:46;19.80;52.20
49379;DHT22;35254;47.990;-1.608;2023-04-03T13:53:59;19.90;52.20
49379;DHT22;35254;47.990;-1.608;2023-04-03T13:56:38;19.80;52.20
49379;DHT22;35254;47.990;-1.608;2023-04-03T14:01:49;19.90;52.30
49379;DHT22;35254;47.990;-1.608;2023-04-03T14:04:20;19.90;52.30
49379;DHT22;35254;47.990;-1.608;2023-04-03T14:06:46;19.90;52.30
49379;DHT22;35254;47.990;-1.608;2023-04-03T14:09:13;19.90;52.20
49379;DHT22;35254;47.990;-1.608;2023-04-03T14:11:40;19.90;52.30
49379;DHT22;35254;47.990;-1.608;2023-04-03T14:14:21;19.90;52.40
49379;DHT22;35254;47.990;-1.608;2023-04-03T14:16:51;19.90;52.50
49379;DHT22;35254;47.990;-1.608;2023-04-03T14:19:32;19.90;52.50
49379;DHT22;35254;47.990;-1.608;2023-04-03T14:21:59;19.90;52.50
49379;DHT22;35254;47.990;-1.608;2023-04-03T14:24:25;19.90;52.60
49379;DHT22;35254;47.990;-1.608;2023-04-03T14:26:52;19.90;52.50
49379;DHT22;35254;47.990;-1.608;2023-04-03T14:29:19;20.00;52.50
49379;DHT22;35254;47.990;-1.608;2023-04-03T14:31:46;20.00;52.50
49379;DHT22;35254;47.990;-1.608;2023-04-03T14:34:13;20.00;52.60
49379;DHT22;35254;47.990;-1.608;2023-04-03T14:36:41;19.90;52.60
49379;DHT22;35254;47.990;-1.608;2023-04-03T14:39:11;20.00;52.50
49379;DHT22;35254;47.990;-1.608;2023-04-03T14:41:41;20.00;52.60
49379;DHT22;35254;47.990;-1.608;2023-04-03T14:44:07;20.00;52.60
49379;DHT22;35254;47.990;-1.608;2023-04-03T14:46:35;20.00;52.70
49379;DHT22;35254;47.990;-1.608;2023-04-03T14:49:03;20.00;52.70
49379;DHT22;35254;47.990;-1.608;2023-04-03T14:51:33;20.00;52.80
49379;DHT22;35254;47.990;-1.608;2023-04-03T14:53:58;20.00;52.70
49379;DHT22;35254;47.990;-1.608;2023-04-03T14:56:28;20.00;52.60
49379;DHT22;35254;47.990;-1.608;2023-04-03T14:58:58;20.00;52.70
49379;DHT22;35254;47.990;-1.608;2023-04-03T15:01:25;20.00;52.70
49379;DHT22;35254;47.990;-1.608;2023-04-03T15:03:51;20.00;52.80
49379;DHT22;35254;47.990;-1.608;2023-04-03T15:06:17;20.00;52.90
49379;DHT22;35254;47.990;-1.608;2023-04-03T15:08:43;20.00;53.00
49379;DHT22;35254;47.990;-1.608;2023-04-03T15:11:11;20.00;53.00
49379;DHT22;35254;47.990;-1.608;2023-04-03T15:13:37;20.00;53.00
49379;DHT22;35254;47.990;-1.608;2023-04-03T15:16:05;20.00;53.00
49379;DHT22;35254;47.990;-1.608;2023-04-03T15:18:35;20.10;53.00
49379;DHT22;35254;47.990;-1.608;2023-04-03T15:21:03;20.10;52.90
49379;DHT22;35254;47.990;-1.608;2023-04-03T15:23:28;20.10;52.90
49379;DHT22;35254;47.990;-1.608;2023-04-03T15:25:55;20.10;52.90
49379;DHT22;35254;47.990;-1.608;2023-04-03T15:28:41;20.00;52.90
49379;DHT22;35254;47.990;-1.608;2023-04-03T15:31:08;20.10;52.80
49379;DHT22;35254;47.990;-1.608;2023-04-03T15:33:34;20.10;52.80
49379;DHT22;35254;47.990;-1.608;2023-04-03T15:36:00;20.10;52.80
49379;DHT22;35254;47.990;-1.608;2023-04-03T15:38:26;20.10;52.80
49379;DHT22;35254;47.990;-1.608;2023-04-03T15:40:52;20.10;52.80
49379;DHT22;35254;47.990;-1.608;2023-04-03T15:43:18;20.00;52.80
49379;DHT22;35254;47.990;-1.608;2023-04-03T15:45:45;20.10;52.80
49379;DHT22;35254;47.990;-1.608;2023-04-03T15:48:10;20.10;52.80
49379;DHT22;35254;47.990;-1.608;2023-04-03T15:50:37;20.10;52.80
49379;DHT22;35254;47.990;-1.608;2023-04-03T15:53:03;20.10;52.80
49379;DHT22;35254;47.990;-1.608;2023-04-03T15:55:31;20.10;52.80
49379;DHT22;35254;47.990;-1.608;2023-04-03T15:57:57;20.10;52.80
49379;DHT22;35254;47.990;-1.608;2023-04-03T16:00:24;20.10;52.80
49379;DHT22;35254;47.990;-1.608;2023-04-03T16:02:53;20.10;52.80
49379;DHT22;35254;47.990;-1.608;2023-04-03T16:05:19;20.10;52.80
49379;DHT22;35254;47.990;-1.608;2023-04-03T16:07:46;20.10;52.80
49379;DHT22;35254;47.990;-1.608;2023-04-03T16:10:13;20.10;52.70
49379;DHT22;35254;47.990;-1.608;2023-04-03T16:12:40;20.10;52.70
49379;DHT22;35254;47.990;-1.608;2023-04-03T16:15:06;20.10;52.70
49379;DHT22;35254;47.990;-1.608;2023-04-03T16:17:33;20.10;52.60
49379;DHT22;35254;47.990;-1.608;2023-04-03T16:20:00;20.10;52.60
49379;DHT22;35254;47.990;-1.608;2023-04-03T16:22:27;20.10;52.60
49379;DHT22;35254;47.990;-1.608;2023-04-03T16:24:54;20.10;52.50
49379;DHT22;35254;47.990;-1.608;2023-04-03T16:27:20;20.10;52.50
49379;DHT22;35254;47.990;-1.608;2023-04-03T16:29:46;20.20;52.50
49379;DHT22;35254;47.990;-1.608;2023-04-03T16:32:12;20.20;52.40
49379;DHT22;35254;47.990;-1.608;2023-04-03T16:34:38;20.10;52.40
49379;DHT22;35254;47.990;-1.608;2023-04-03T16:37:06;20.10;52.20
49379;DHT22;35254;47.990;-1.608;2023-04-03T16:39:34;20.20;52.00
49379;DHT22;35254;47.990;-1.608;2023-04-03T16:42:00;20.20;52.00
49379;DHT22;35254;47.990;-1.608;2023-04-03T16:44:25;20.20;51.90
49379;DHT22;35254;47.990;-1.608;2023-04-03T16:46:51;20.20;51.90
49379;DHT22;35254;47.990;-1.608;2023-04-03T16:49:17;20.20;51.90
49379;DHT22;35254;47.990;-1.608;2023-04-03T16:51:42;20.20;51.90
49379;DHT22;35254;47.990;-1.608;2023-04-03T16:54:08;20.20;52.00
49379;DHT22;35254;47.990;-1.608;2023-04-03T16:56:36;20.20;52.00
49379;DHT22;35254;47.990;-1.608;2023-04-03T16:59:02;20.20;52.00
49379;DHT22;35254;47.990;-1.608;2023-04-03T17:01:27;20.20;52.10
49379;DHT22;35254;47.990;-1.608;2023-04-03T17:03:53;20.20;52.00
49379;DHT22;35254;47.990;-1.608;2023-04-03T17:06:20;20.20;52.00
49379;DHT22;35254;47.990;-1.608;2023-04-03T17:08:48;20.20;52.10
49379;DHT22;35254;47.990;-1.608;2023-04-03T17:11:14;20.20;52.10
49379;DHT22;35254;47.990;-1.608;2023-04-03T17:13:40;20.20;52.10
49379;DHT22;35254;47.990;-1.608;2023-04-03T17:16:09;20.20;52.10
49379;DHT22;35254;47.990;-1.608;2023-04-03T17:18:37;20.20;52.10
49379;DHT22;35254;47.990;-1.608;2023-04-03T17:21:05;20.20;52.10
49379;DHT22;35254;47.990;-1.608;2023-04-03T17:23:32;20.20;51.80